sensor_id;sensor_type;location;lat;lon;timestamp;P1;durP1;ratioP1;P2;durP2;ratioP2
16401;SDS011;8310;44.626;11.176;2023-04-03T00:00:59;4.10;;;3.80;;
16401;SDS011;8310;44.626;11.176;2023-04-03T00:03:26;4.30;;;3.97;;
16401;SDS011;8310;44.626;11.176;2023-04-03T00:05:56;4.40;;;4.10;;
16401;SDS011;8310;44.626;11.176;2023-04-03T00:08:24;4.50;;;4.10;;
16401;SDS011;8310;44.626;11.176;2023-04-03T00:10:52;4.35;;;4.05;;
16401;SDS011;8310;44.626;11.176;2023-04-03T00:13:20;4.45;;;4.13;;
16401;SDS011;8310;44.626;11.176;2023-04-03T00:15:48;5.05;;;4.65;;
16401;SDS011;8310;44.626;11.176;2023-04-03T00:18:16;4.78;;;4.38;;
16401;SDS011;8310;44.626;11.176;2023-04-03T00:20:43;5.00;;;4.53;;
16401;SDS011;8310;44.626;11.176;2023-04-03T00:23:12;5.05;;;4.65;;
16401;SDS011;8310;44.626;11.176;2023-04-03T00:25:40;5.63;;;4.95;;
16401;SDS011;8310;44.626;11.176;2023-04-03T00:28:08;5.55;;;5.05;;
16401;SDS011;8310;44.626;11.176;2023-04-03T00:30:36;5.68;;;5.10;;
16401;SDS011;8310;44.626;11.176;2023-04-03T00:33:04;6.10;;;5.53;;
16401;SDS011;8310;44.626;11.176;2023-04-03T00:35:31;5.43;;;5.03;;
16401;SDS011;8310;44.626;11.176;2023-04-03T00:38:01;5.78;;;5.28;;
16401;SDS011;8310;44.626;11.176;2023-04-03T00:40:32;5.78;;;5.28;;
16401;SDS011;8310;44.626;11.176;2023-04-03T00:43:10;5.45;;;4.95;;
16401;SDS011;8310;44.626;11.176;2023-04-03T00:45:40;5.70;;;5.25;;
16401;SDS011;8310;44.626;11.176;2023-04-03T00:48:10;7.63;;;6.05;;
16401;SDS011;8310;44.626;11.176;2023-04-03T00:50:40;6.32;;;5.82;;
16401;SDS011;8310;44.626;11.176;2023-04-03T00:53:10;5.45;;;5.05;;
16401;SDS011;8310;44.626;11.176;2023-04-03T00:55:42;5.72;;;5.22;;
16401;SDS011;8310;44.626;11.176;2023-04-03T00:58:12;5.40;;;4.90;;
16401;SDS011;8310;44.626;11.176;2023-04-03T01:00:44;5.10;;;4.70;;
16401;SDS011;8310;44.626;11.176;2023-04-03T01:03:18;4.55;;;4.15;;
16401;SDS011;8310;44.626;11.176;2023-04-03T01:05:46;6.00;;;4.55;;
16401;SDS011;8310;44.626;11.176;2023-04-03T01:08:14;4.80;;;4.25;;
16401;SDS011;8310;44.626;11.176;2023-04-03T01:10:46;3.90;;;3.60;;
16401;SDS011;8310;44.626;11.176;2023-04-03T01:13:22;4.50;;;4.00;;
16401;SDS011;8310;44.626;11.176;2023-04-03T01:15:52;4.60;;;4.25;;
16401;SDS011;8310;44.626;11.176;2023-04-03T01:18:20;3.88;;;3.53;;
16401;SDS011;8310;44.626;11.176;2023-04-03T01:20:55;3.72;;;3.42;;
16401;SDS011;8310;44.626;11.176;2023-04-03T01:26:51;3.80;;;3.60;;
16401;SDS011;8310;44.626;11.176;2023-04-03T01:29:19;4.32;;;3.80;;
16401;SDS011;8310;44.626;11.176;2023-04-03T01:31:58;3.78;;;3.47;;
16401;SDS011;8310;44.626;11.176;2023-04-03T01:34:27;3.78;;;3.47;;
16401;SDS011;8310;44.626;11.176;2023-04-03T01:36:55;4.25;;;3.95;;
16401;SDS011;8310;44.626;11.176;2023-04-03T01:39:23;3.65;;;3.45;;
16401;SDS011;8310;44.626;11.176;2023-04-03T01:41:51;4.20;;;3.88;;
16401;SDS011;8310;44.626;11.176;2023-04-03T01:44:19;3.75;;;3.53;;
16401;SDS011;8310;44.626;11.176;2023-04-03T01:46:47;3.40;;;3.20;;
16401;SDS011;8310;44.626;11.176;2023-04-03T01:49:16;3.80;;;3.50;;
16401;SDS011;8310;44.626;11.176;2023-04-03T01:51:43;3.92;;;3.63;;
16401;SDS011;8310;44.626;11.176;2023-04-03T01:54:15;4.25;;;3.65;;
16401;SDS011;8310;44.626;11.176;2023-04-03T01:56:43;4.28;;;3.97;;
16401;SDS011;8310;44.626;11.176;2023-04-03T01:59:10;4.63;;;4.32;;
16401;SDS011;8310;44.626;11.176;2023-04-03T02:01:37;3.83;;;3.53;;
16401;SDS011;8310;44.626;11.176;2023-04-03T02:04:05;4.30;;;4.00;;
16401;SDS011;8310;44.626;11.176;2023-04-03T02:06:34;4.78;;;4.45;;
16401;SDS011;8310;44.626;11.176;2023-04-03T02:09:02;6.35;;;5.80;;
16401;SDS011;8310;44.626;11.176;2023-04-03T02:11:34;5.80;;;5.30;;
16401;SDS011;8310;44.626;11.176;2023-04-03T02:14:02;5.85;;;5.35;;
16401;SDS011;8310;44.626;11.176;2023-04-03T02:16:30;5.85;;;5.35;;
16401;SDS011;8310;44.626;11.176;2023-04-03T02:18:58;6.60;;;6.00;;
16401;SDS011;8310;44.626;11.176;2023-04-03T02:21:26;7.03;;;6.10;;
16401;SDS011;8310;44.626;11.176;2023-04-03T02:24:16;7.10;;;6.45;;
16401;SDS011;8310;44.626;11.176;2023-04-03T02:26:44;6.47;;;5.90;;
16401;SDS011;8310;44.626;11.176;2023-04-03T02:29:11;5.65;;;5.15;;
16401;SDS011;8310;44.626;11.176;2023-04-03T02:31:39;6.93;;;6.00;;
16401;SDS011;8310;44.626;11.176;2023-04-03T02:34:06;5.80;;;5.30;;
16401;SDS011;8310;44.626;11.176;2023-04-03T02:36:33;5.80;;;5.40;;
16401;SDS011;8310;44.626;11.176;2023-04-03T02:39:00;6.47;;;5.88;;
16401;SDS011;8310;44.626;11.176;2023-04-03T02:41:29;5.75;;;5.25;;
16401;SDS011;8310;44.626;11.176;2023-04-03T02:44:00;5.43;;;5.03;;
16401;SDS011;8310;44.626;11.176;2023-04-03T02:46:28;6.28;;;5.68;;
16401;SDS011;8310;44.626;11.176;2023-04-03T02:48:56;5.43;;;5.00;;
16401;SDS011;8310;44.626;11.176;2023-04-03T02:51:24;5.68;;;5.18;;
16401;SDS011;8310;44.626;11.176;2023-04-03T02:53:52;5.82;;;5.43;;
16401;SDS011;8310;44.626;11.176;2023-04-03T02:56:20;6.38;;;5.78;;
16401;SDS011;8310;44.626;11.176;2023-04-03T02:58:49;6.97;;;6.38;;
16401;SDS011;8310;44.626;11.176;2023-04-03T03:01:17;7.90;;;7.20;;
16401;SDS011;8310;44.626;11.176;2023-04-03T03:03:45;6.90;;;6.30;;
16401;SDS011;8310;44.626;11.176;2023-04-03T03:06:14;7.10;;;6.38;;
16401;SDS011;8310;44.626;11.176;2023-04-03T03:08:44;7.68;;;5.97;;
16401;SDS011;8310;44.626;11.176;2023-04-03T03:11:12;6.78;;;6.18;;
16401;SDS011;8310;44.626;11.176;2023-04-03T03:13:39;7.10;;;6.50;;
16401;SDS011;8310;44.626;11.176;2023-04-03T03:16:08;6.95;;;6.30;;
16401;SDS011;8310;44.626;11.176;2023-04-03T03:18:36;7.20;;;5.82;;
16401;SDS011;8310;44.626;11.176;2023-04-03T03:21:04;6.18;;;5.60;;
16401;SDS011;8310;44.626;11.176;2023-04-03T03:23:32;5.88;;;5.18;;
16401;SDS011;8310;44.626;11.176;2023-04-03T03:26:01;6.65;;;6.10;;
16401;SDS011;8310;44.626;11.176;2023-04-03T03:28:30;6.65;;;6.05;;
16401;SDS011;8310;44.626;11.176;2023-04-03T03:30:57;6.30;;;5.70;;
16401;SDS011;8310;44.626;11.176;2023-04-03T03:33:26;6.63;;;6.13;;
16401;SDS011;8310;44.626;11.176;2023-04-03T03:35:54;5.75;;;5.30;;
16401;SDS011;8310;44.626;11.176;2023-04-03T03:38:23;6.78;;;6.10;;
16401;SDS011;8310;44.626;11.176;2023-04-03T03:40:51;6.22;;;4.75;;
16401;SDS011;8310;44.626;11.176;2023-04-03T03:43:19;6.22;;;5.00;;
16401;SDS011;8310;44.626;11.176;2023-04-03T03:45:49;4.55;;;4.13;;
16401;SDS011;8310;44.626;11.176;2023-04-03T03:48:17;5.15;;;4.75;;
16401;SDS011;8310;44.626;11.176;2023-04-03T03:50:47;6.40;;;4.68;;
16401;SDS011;8310;44.626;11.176;2023-04-03T03:53:15;5.00;;;4.50;;
16401;SDS011;8310;44.626;11.176;2023-04-03T03:55:43;4.20;;;3.90;;
16401;SDS011;8310;44.626;11.176;2023-04-03T03:58:11;4.63;;;4.22;;
16401;SDS011;8310;44.626;11.176;2023-04-03T04:00:39;4.95;;;4.18;;
16401;SDS011;8310;44.626;11.176;2023-04-03T04:03:06;4.78;;;4.47;;
16401;SDS011;8310;44.626;11.176;2023-04-03T04:05:33;4.80;;;4.50;;
16401;SDS011;8310;44.626;11.176;2023-04-03T04:08:02;4.30;;;4.00;;
16401;SDS011;8310;44.626;11.176;2023-04-03T04:10:30;4.53;;;4.13;;
16401;SDS011;8310;44.626;11.176;2023-04-03T04:12:57;4.35;;;4.05;;
16401;SDS011;8310;44.626;11.176;2023-04-03T04:15:25;4.82;;;4.32;;
16401;SDS011;8310;44.626;11.176;2023-04-03T04:17:52;4.50;;;4.10;;
16401;SDS011;8310;44.626;11.176;2023-04-03T04:20:20;4.75;;;4.32;;
16401;SDS011;8310;44.626;11.176;2023-04-03T04:22:50;4.10;;;3.80;;
16401;SDS011;8310;44.626;11.176;2023-04-03T04:25:20;4.90;;;4.50;;
16401;SDS011;8310;44.626;11.176;2023-04-03T04:27:48;4.53;;;4.18;;
16401;SDS011;8310;44.626;11.176;2023-04-03T04:30:16;4.53;;;4.07;;
16401;SDS011;8310;44.626;11.176;2023-04-03T04:32:44;4.60;;;4.20;;
16401;SDS011;8310;44.626;11.176;2023-04-03T04:35:12;4.10;;;3.72;;
16401;SDS011;8310;44.626;11.176;2023-04-03T04:37:39;4.78;;;4.35;;
16401;SDS011;8310;44.626;11.176;2023-04-03T04:40:07;4.13;;;3.83;;
16401;SDS011;8310;44.626;11.176;2023-04-03T04:42:37;4.85;;;4.40;;
16401;SDS011;8310;44.626;11.176;2023-04-03T04:45:05;4.32;;;4.03;;
16401;SDS011;8310;44.626;11.176;2023-04-03T04:47:33;5.53;;;3.97;;
16401;SDS011;8310;44.626;11.176;2023-04-03T04:50:01;4.47;;;4.15;;
16401;SDS011;8310;44.626;11.176;2023-04-03T04:52:29;7.55;;;5.43;;
16401;SDS011;8310;44.626;11.176;2023-04-03T04:54:56;5.35;;;4.85;;
16401;SDS011;8310;44.626;11.176;2023-04-03T04:57:24;5.45;;;4.65;;
16401;SDS011;8310;44.626;11.176;2023-04-03T04:59:54;6.15;;;4.63;;
16401;SDS011;8310;44.626;11.176;2023-04-03T05:02:21;6.10;;;4.70;;
16401;SDS011;8310;44.626;11.176;2023-04-03T05:04:49;4.68;;;4.25;;
16401;SDS011;8310;44.626;11.176;2023-04-03T05:07:17;6.90;;;4.45;;
16401;SDS011;8310;44.626;11.176;2023-04-03T05:09:44;5.25;;;4.63;;
16401;SDS011;8310;44.626;11.176;2023-04-03T05:12:12;5.07;;;4.50;;
16401;SDS011;8310;44.626;11.176;2023-04-03T05:14:40;7.03;;;5.07;;
16401;SDS011;8310;44.626;11.176;2023-04-03T05:17:09;5.20;;;4.80;;
16401;SDS011;8310;44.626;11.176;2023-04-03T05:19:36;5.00;;;4.60;;
16401;SDS011;8310;44.626;11.176;2023-04-03T05:22:04;5.93;;;5.32;;
16401;SDS011;8310;44.626;11.176;2023-04-03T05:24:32;9.98;;;5.45;;
16401;SDS011;8310;44.626;11.176;2023-04-03T05:27:00;8.52;;;4.90;;
16401;SDS011;8310;44.626;11.176;2023-04-03T05:29:28;5.07;;;4.68;;
16401;SDS011;8310;44.626;11.176;2023-04-03T05:31:55;5.38;;;4.97;;
16401;SDS011;8310;44.626;11.176;2023-04-03T05:34:24;6.00;;;4.68;;
16401;SDS011;8310;44.626;11.176;2023-04-03T05:36:53;5.35;;;4.95;;
16401;SDS011;8310;44.626;11.176;2023-04-03T05:39:20;5.20;;;4.80;;
16401;SDS011;8310;44.626;11.176;2023-04-03T05:41:49;5.53;;;4.85;;
16401;SDS011;8310;44.626;11.176;2023-04-03T05:44:17;6.82;;;5.13;;
16401;SDS011;8310;44.626;11.176;2023-04-03T05:46:44;7.35;;;5.47;;
16401;SDS011;8310;44.626;11.176;2023-04-03T05:49:11;6.65;;;5.85;;
16401;SDS011;8310;44.626;11.176;2023-04-03T05:51:41;5.57;;;5.10;;
16401;SDS011;8310;44.626;11.176;2023-04-03T05:54:11;7.43;;;5.68;;
16401;SDS011;8310;44.626;11.176;2023-04-03T05:56:42;7.63;;;5.57;;
16401;SDS011;8310;44.626;11.176;2023-04-03T05:59:09;6.22;;;5.40;;
16401;SDS011;8310;44.626;11.176;2023-04-03T06:01:37;5.53;;;4.80;;
16401;SDS011;8310;44.626;11.176;2023-04-03T06:04:05;6.85;;;5.18;;
16401;SDS011;8310;44.626;11.176;2023-04-03T06:06:45;6.32;;;4.50;;
16401;SDS011;8310;44.626;11.176;2023-04-03T06:09:14;4.55;;;4.22;;
16401;SDS011;8310;44.626;11.176;2023-04-03T06:11:43;4.78;;;4.38;;
16401;SDS011;8310;44.626;11.176;2023-04-03T06:14:11;4.78;;;4.30;;
16401;SDS011;8310;44.626;11.176;2023-04-03T06:16:39;4.88;;;4.47;;
16401;SDS011;8310;44.626;11.176;2023-04-03T06:19:07;4.80;;;4.50;;
16401;SDS011;8310;44.626;11.176;2023-04-03T06:21:34;5.22;;;4.78;;
16401;SDS011;8310;44.626;11.176;2023-04-03T06:24:04;7.28;;;4.82;;
16401;SDS011;8310;44.626;11.176;2023-04-03T06:26:32;6.10;;;5.45;;
16401;SDS011;8310;44.626;11.176;2023-04-03T06:29:00;5.47;;;4.97;;
16401;SDS011;8310;44.626;11.176;2023-04-03T06:31:27;6.35;;;4.93;;
16401;SDS011;8310;44.626;11.176;2023-04-03T06:33:55;6.47;;;5.90;;
16401;SDS011;8310;44.626;11.176;2023-04-03T06:36:22;8.38;;;5.97;;
16401;SDS011;8310;44.626;11.176;2023-04-03T06:38:50;6.60;;;5.68;;
16401;SDS011;8310;44.626;11.176;2023-04-03T06:41:19;9.55;;;6.30;;
16401;SDS011;8310;44.626;11.176;2023-04-03T06:43:47;7.15;;;6.10;;
16401;SDS011;8310;44.626;11.176;2023-04-03T06:46:15;7.40;;;6.65;;
16401;SDS011;8310;44.626;11.176;2023-04-03T06:48:43;6.55;;;6.05;;
16401;SDS011;8310;44.626;11.176;2023-04-03T06:51:14;8.40;;;7.60;;
16401;SDS011;8310;44.626;11.176;2023-04-03T06:53:45;8.30;;;7.50;;
16401;SDS011;8310;44.626;11.176;2023-04-03T06:56:13;8.35;;;7.65;;
16401;SDS011;8310;44.626;11.176;2023-04-03T06:58:42;8.10;;;7.30;;
16401;SDS011;8310;44.626;11.176;2023-04-03T07:01:10;8.45;;;7.65;;
16401;SDS011;8310;44.626;11.176;2023-04-03T07:03:39;8.68;;;7.97;;
16401;SDS011;8310;44.626;11.176;2023-04-03T07:06:08;8.45;;;7.53;;
16401;SDS011;8310;44.626;11.176;2023-04-03T07:08:38;8.30;;;7.53;;
16401;SDS011;8310;44.626;11.176;2023-04-03T07:11:07;10.05;;;8.45;;
16401;SDS011;8310;44.626;11.176;2023-04-03T07:13:35;10.48;;;8.88;;
16401;SDS011;8310;44.626;11.176;2023-04-03T07:16:05;8.95;;;8.15;;
16401;SDS011;8310;44.626;11.176;2023-04-03T07:18:33;9.65;;;8.63;;
16401;SDS011;8310;44.626;11.176;2023-04-03T07:21:01;9.05;;;8.32;;
16401;SDS011;8310;44.626;11.176;2023-04-03T07:23:29;9.90;;;8.75;;
16401;SDS011;8310;44.626;11.176;2023-04-03T07:25:57;9.73;;;8.93;;
16401;SDS011;8310;44.626;11.176;2023-04-03T07:28:24;10.23;;;9.23;;
16401;SDS011;8310;44.626;11.176;2023-04-03T07:30:53;11.43;;;9.85;;
16401;SDS011;8310;44.626;11.176;2023-04-03T07:33:27;10.10;;;9.30;;
16401;SDS011;8310;44.626;11.176;2023-04-03T07:35:56;10.85;;;9.75;;
16401;SDS011;8310;44.626;11.176;2023-04-03T07:38:23;10.15;;;9.15;;
16401;SDS011;8310;44.626;11.176;2023-04-03T07:40:51;11.60;;;10.15;;
16401;SDS011;8310;44.626;11.176;2023-04-03T07:43:20;12.48;;;10.40;;
16401;SDS011;8310;44.626;11.176;2023-04-03T07:45:49;10.05;;;9.05;;
16401;SDS011;8310;44.626;11.176;2023-04-03T07:48:17;10.27;;;9.30;;
16401;SDS011;8310;44.626;11.176;2023-04-03T07:50:48;10.30;;;9.32;;
16401;SDS011;8310;44.626;11.176;2023-04-03T07:53:15;10.57;;;9.65;;
16401;SDS011;8310;44.626;11.176;2023-04-03T07:55:43;11.13;;;10.07;;
16401;SDS011;8310;44.626;11.176;2023-04-03T07:58:14;11.10;;;10.15;;
16401;SDS011;8310;44.626;11.176;2023-04-03T08:00:44;12.15;;;10.93;;
16401;SDS011;8310;44.626;11.176;2023-04-03T08:03:11;11.93;;;10.73;;
16401;SDS011;8310;44.626;11.176;2023-04-03T08:05:39;11.80;;;10.80;;
16401;SDS011;8310;44.626;11.176;2023-04-03T08:08:10;12.05;;;10.85;;
16401;SDS011;8310;44.626;11.176;2023-04-03T08:10:38;11.70;;;10.25;;
16401;SDS011;8310;44.626;11.176;2023-04-03T08:13:07;12.10;;;10.10;;
16401;SDS011;8310;44.626;11.176;2023-04-03T08:15:36;10.88;;;9.88;;
16401;SDS011;8310;44.626;11.176;2023-04-03T08:18:03;12.43;;;11.10;;
16401;SDS011;8310;44.626;11.176;2023-04-03T08:20:31;12.77;;;10.73;;
16401;SDS011;8310;44.626;11.176;2023-04-03T08:22:59;11.88;;;10.75;;
16401;SDS011;8310;44.626;11.176;2023-04-03T08:25:29;11.90;;;10.75;;
16401;SDS011;8310;44.626;11.176;2023-04-03T08:27:56;11.60;;;10.55;;
16401;SDS011;8310;44.626;11.176;2023-04-03T08:30:24;11.93;;;10.65;;
16401;SDS011;8310;44.626;11.176;2023-04-03T08:32:51;11.50;;;10.57;;
16401;SDS011;8310;44.626;11.176;2023-04-03T08:35:19;10.25;;;9.23;;
16401;SDS011;8310;44.626;11.176;2023-04-03T08:37:46;9.55;;;8.77;;
16401;SDS011;8310;44.626;11.176;2023-04-03T08:40:15;8.68;;;7.68;;
16401;SDS011;8310;44.626;11.176;2023-04-03T08:42:51;11.55;;;8.60;;
16401;SDS011;8310;44.626;11.176;2023-04-03T08:45:26;10.15;;;8.43;;
16401;SDS011;8310;44.626;11.176;2023-04-03T08:48:00;8.88;;;8.07;;
16401;SDS011;8310;44.626;11.176;2023-04-03T08:50:33;9.43;;;8.52;;
16401;SDS011;8310;44.626;11.176;2023-04-03T08:53:06;10.13;;;8.77;;
16401;SDS011;8310;44.626;11.176;2023-04-03T08:55:42;7.95;;;7.15;;
16401;SDS011;8310;44.626;11.176;2023-04-03T08:58:14;7.55;;;6.93;;
16401;SDS011;8310;44.626;11.176;2023-04-03T09:00:46;23.73;;;7.20;;
16401;SDS011;8310;44.626;11.176;2023-04-03T09:03:17;8.23;;;7.30;;
16401;SDS011;8310;44.626;11.176;2023-04-03T09:05:47;8.50;;;6.88;;
16401;SDS011;8310;44.626;11.176;2023-04-03T09:08:21;5.97;;;5.47;;
16401;SDS011;8310;44.626;11.176;2023-04-03T09:10:52;7.32;;;6.10;;
16401;SDS011;8310;44.626;11.176;2023-04-03T09:13:34;7.97;;;6.72;;
16401;SDS011;8310;44.626;11.176;2023-04-03T09:16:12;6.95;;;6.32;;
16401;SDS011;8310;44.626;11.176;2023-04-03T09:18:48;7.38;;;6.68;;
16401;SDS011;8310;44.626;11.176;2023-04-03T09:21:23;7.80;;;7.00;;
16401;SDS011;8310;44.626;11.176;2023-04-03T09:23:58;7.13;;;6.63;;
16401;SDS011;8310;44.626;11.176;2023-04-03T09:26:29;6.88;;;6.07;;
16401;SDS011;8310;44.626;11.176;2023-04-03T09:29:05;7.05;;;6.18;;
16401;SDS011;8310;44.626;11.176;2023-04-03T09:31:36;6.18;;;5.60;;
16401;SDS011;8310;44.626;11.176;2023-04-03T09:34:08;6.72;;;6.03;;
16401;SDS011;8310;44.626;11.176;2023-04-03T09:36:43;7.63;;;5.82;;
16401;SDS011;8310;44.626;11.176;2023-04-03T09:39:13;6.15;;;4.93;;
16401;SDS011;8310;44.626;11.176;2023-04-03T09:41:42;8.55;;;6.18;;
16401;SDS011;8310;44.626;11.176;2023-04-03T09:44:23;5.20;;;4.80;;
16401;SDS011;8310;44.626;11.176;2023-04-03T09:46:52;5.80;;;4.85;;
16401;SDS011;8310;44.626;11.176;2023-04-03T09:49:19;7.07;;;5.82;;
16401;SDS011;8310;44.626;11.176;2023-04-03T09:51:48;5.78;;;5.00;;
16401;SDS011;8310;44.626;11.176;2023-04-03T09:54:24;7.80;;;4.30;;
16401;SDS011;8310;44.626;11.176;2023-04-03T09:56:56;4.38;;;3.95;;
16401;SDS011;8310;44.626;11.176;2023-04-03T09:59:29;6.75;;;4.35;;
16401;SDS011;8310;44.626;11.176;2023-04-03T10:01:59;5.38;;;4.78;;
16401;SDS011;8310;44.626;11.176;2023-04-03T10:04:37;5.07;;;4.65;;
16401;SDS011;8310;44.626;11.176;2023-04-03T10:10:00;5.88;;;5.05;;
16401;SDS011;8310;44.626;11.176;2023-04-03T10:12:29;5.43;;;5.10;;
16401;SDS011;8310;44.626;11.176;2023-04-03T10:14:59;5.72;;;5.20;;
16401;SDS011;8310;44.626;11.176;2023-04-03T10:17:31;7.80;;;6.53;;
16401;SDS011;8310;44.626;11.176;2023-04-03T10:20:10;6.90;;;6.30;;
16401;SDS011;8310;44.626;11.176;2023-04-03T10:22:54;7.68;;;7.00;;
16401;SDS011;8310;44.626;11.176;2023-04-03T10:25:28;8.15;;;6.63;;
16401;SDS011;8310;44.626;11.176;2023-04-03T10:28:03;9.15;;;8.25;;
16401;SDS011;8310;44.626;11.176;2023-04-03T10:30:39;8.43;;;7.70;;
16401;SDS011;8310;44.626;11.176;2023-04-03T10:33:17;10.35;;;8.63;;
16401;SDS011;8310;44.626;11.176;2023-04-03T10:35:51;9.27;;;8.38;;
16401;SDS011;8310;44.626;11.176;2023-04-03T10:38:31;13.10;;;8.93;;
16401;SDS011;8310;44.626;11.176;2023-04-03T10:41:07;9.07;;;6.28;;
16401;SDS011;8310;44.626;11.176;2023-04-03T10:43:43;7.50;;;6.40;;
16401;SDS011;8310;44.626;11.176;2023-04-03T10:46:20;8.27;;;6.53;;
16401;SDS011;8310;44.626;11.176;2023-04-03T10:49:06;6.63;;;5.97;;
16401;SDS011;8310;44.626;11.176;2023-04-03T10:51:44;7.28;;;6.57;;
16401;SDS011;8310;44.626;11.176;2023-04-03T10:54:16;6.18;;;5.57;;
16401;SDS011;8310;44.626;11.176;2023-04-03T10:56:51;7.20;;;6.43;;
16401;SDS011;8310;44.626;11.176;2023-04-03T10:59:23;6.80;;;6.22;;
16401;SDS011;8310;44.626;11.176;2023-04-03T11:01:58;7.53;;;6.93;;
16401;SDS011;8310;44.626;11.176;2023-04-03T11:04:27;7.70;;;6.97;;
16401;SDS011;8310;44.626;11.176;2023-04-03T11:06:59;9.30;;;6.75;;
16401;SDS011;8310;44.626;11.176;2023-04-03T11:09:29;7.28;;;6.57;;
16401;SDS011;8310;44.626;11.176;2023-04-03T11:12:00;7.90;;;6.97;;
16401;SDS011;8310;44.626;11.176;2023-04-03T11:14:31;7.72;;;6.10;;
16401;SDS011;8310;44.626;11.176;2023-04-03T11:17:06;7.90;;;5.57;;
16401;SDS011;8310;44.626;11.176;2023-04-03T11:19:48;5.65;;;5.18;;
16401;SDS011;8310;44.626;11.176;2023-04-03T11:22:25;8.20;;;4.57;;
16401;SDS011;8310;44.626;11.176;2023-04-03T11:24:58;4.45;;;4.15;;
16401;SDS011;8310;44.626;11.176;2023-04-03T11:27:33;6.72;;;4.70;;
16401;SDS011;8310;44.626;11.176;2023-04-03T11:30:06;6.25;;;3.20;;
16401;SDS011;8310;44.626;11.176;2023-04-03T11:32:55;7.35;;;4.03;;
16401;SDS011;8310;44.626;11.176;2023-04-03T11:35:54;4.85;;;3.80;;
16401;SDS011;8310;44.626;11.176;2023-04-03T11:38:27;3.08;;;2.60;;
16401;SDS011;8310;44.626;11.176;2023-04-03T11:41:01;5.45;;;3.00;;
16401;SDS011;8310;44.626;11.176;2023-04-03T11:43:31;3.78;;;2.90;;
16401;SDS011;8310;44.626;11.176;2023-04-03T11:46:00;3.20;;;2.50;;
16401;SDS011;8310;44.626;11.176;2023-04-03T11:54:35;3.42;;;3.22;;
16401;SDS011;8310;44.626;11.176;2023-04-03T12:12:41;2.00;;;1.80;;
16401;SDS011;8310;44.626;11.176;2023-04-03T12:15:16;2.22;;;2.00;;
16401;SDS011;8310;44.626;11.176;2023-04-03T12:17:49;11.75;;;2.95;;
16401;SDS011;8310;44.626;11.176;2023-04-03T12:23:23;2.75;;;1.60;;
16401;SDS011;8310;44.626;11.176;2023-04-03T12:25:54;1.90;;;1.80;;
16401;SDS011;8310;44.626;11.176;2023-04-03T12:28:29;3.20;;;1.83;;
16401;SDS011;8310;44.626;11.176;2023-04-03T12:31:00;2.03;;;1.80;;
16401;SDS011;8310;44.626;11.176;2023-04-03T12:33:32;2.15;;;1.70;;
16401;SDS011;8310;44.626;11.176;2023-04-03T12:36:09;2.00;;;1.58;;
16401;SDS011;8310;44.626;11.176;2023-04-03T12:41:45;1.70;;;1.60;;
16401;SDS011;8310;44.626;11.176;2023-04-03T12:44:24;3.58;;;1.80;;
16401;SDS011;8310;44.626;11.176;2023-04-03T12:47:02;3.22;;;2.60;;
16401;SDS011;8310;44.626;11.176;2023-04-03T12:49:44;3.45;;;2.40;;
16401;SDS011;8310;44.626;11.176;2023-04-03T12:52:17;3.00;;;1.80;;
16401;SDS011;8310;44.626;11.176;2023-04-03T12:54:50;2.22;;;2.08;;
16401;SDS011;8310;44.626;11.176;2023-04-03T12:57:20;3.92;;;1.70;;
16401;SDS011;8310;44.626;11.176;2023-04-03T12:59:50;5.43;;;1.50;;
16401;SDS011;8310;44.626;11.176;2023-04-03T13:02:20;1.88;;;1.50;;
16401;SDS011;8310;44.626;11.176;2023-04-03T13:04:50;2.53;;;1.60;;
16401;SDS011;8310;44.626;11.176;2023-04-03T13:07:19;1.50;;;1.40;;
16401;SDS011;8310;44.626;11.176;2023-04-03T13:09:55;1.80;;;1.23;;
16401;SDS011;8310;44.626;11.176;2023-04-03T13:12:29;1.75;;;1.25;;
16401;SDS011;8310;44.626;11.176;2023-04-03T13:14:57;2.05;;;1.35;;
16401;SDS011;8310;44.626;11.176;2023-04-03T13:17:26;3.50;;;1.63;;
16401;SDS011;8310;44.626;11.176;2023-04-03T13:19:54;2.20;;;1.50;;
16401;SDS011;8310;44.626;11.176;2023-04-03T13:22:57;1.60;;;1.50;;
16401;SDS011;8310;44.626;11.176;2023-04-03T13:25:29;3.90;;;1.50;;
16401;SDS011;8310;44.626;11.176;2023-04-03T13:27:59;1.60;;;1.42;;
16401;SDS011;8310;44.626;11.176;2023-04-03T13:30:29;3.00;;;1.55;;
16401;SDS011;8310;44.626;11.176;2023-04-03T13:33:00;2.03;;;1.52;;
16401;SDS011;8310;44.626;11.176;2023-04-03T13:35:35;2.38;;;1.67;;
16401;SDS011;8310;44.626;11.176;2023-04-03T13:38:06;8.52;;;1.75;;
16401;SDS011;8310;44.626;11.176;2023-04-03T13:40:48;4.95;;;2.55;;
16401;SDS011;8310;44.626;11.176;2023-04-03T13:43:19;2.15;;;2.00;;
16401;SDS011;8310;44.626;11.176;2023-04-03T13:45:53;5.50;;;1.70;;
16401;SDS011;8310;44.626;11.176;2023-04-03T13:48:24;18.38;;;4.22;;
16401;SDS011;8310;44.626;11.176;2023-04-03T13:50:54;10.07;;;3.05;;
16401;SDS011;8310;44.626;11.176;2023-04-03T13:53:25;4.10;;;2.15;;
16401;SDS011;8310;44.626;11.176;2023-04-03T13:55:57;3.63;;;1.88;;
16401;SDS011;8310;44.626;11.176;2023-04-03T13:58:33;1.92;;;1.58;;
16401;SDS011;8310;44.626;11.176;2023-04-03T14:01:06;17.08;;;5.00;;
16401;SDS011;8310;44.626;11.176;2023-04-03T14:03:39;14.15;;;3.38;;
16401;SDS011;8310;44.626;11.176;2023-04-03T14:06:10;2.00;;;1.90;;
16401;SDS011;8310;44.626;11.176;2023-04-03T14:08:40;2.60;;;2.05;;
16401;SDS011;8310;44.626;11.176;2023-04-03T14:11:08;2.25;;;2.13;;
16401;SDS011;8310;44.626;11.176;2023-04-03T14:13:42;3.05;;;2.10;;
16401;SDS011;8310;44.626;11.176;2023-04-03T14:16:12;3.65;;;1.70;;
16401;SDS011;8310;44.626;11.176;2023-04-03T14:18:41;2.13;;;1.70;;
16401;SDS011;8310;44.626;11.176;2023-04-03T14:21:10;1.95;;;1.60;;
16401;SDS011;8310;44.626;11.176;2023-04-03T14:23:38;2.55;;;1.80;;
16401;SDS011;8310;44.626;11.176;2023-04-03T14:26:08;1.98;;;1.88;;
16401;SDS011;8310;44.626;11.176;2023-04-03T14:28:37;23.52;;;17.80;;
16401;SDS011;8310;44.626;11.176;2023-04-03T14:31:07;3.97;;;2.08;;
16401;SDS011;8310;44.626;11.176;2023-04-03T14:33:36;3.97;;;2.25;;
16401;SDS011;8310;44.626;11.176;2023-04-03T14:36:05;3.17;;;2.95;;
16401;SDS011;8310;44.626;11.176;2023-04-03T14:38:40;1.80;;;1.70;;
16401;SDS011;8310;44.626;11.176;2023-04-03T14:41:08;2.10;;;2.00;;
16401;SDS011;8310;44.626;11.176;2023-04-03T14:43:39;9.60;;;2.70;;
16401;SDS011;8310;44.626;11.176;2023-04-03T14:46:12;2.25;;;1.40;;
16401;SDS011;8310;44.626;11.176;2023-04-03T14:48:41;3.08;;;1.85;;
16401;SDS011;8310;44.626;11.176;2023-04-03T14:51:08;1.75;;;1.63;;
16401;SDS011;8310;44.626;11.176;2023-04-03T14:53:37;3.58;;;1.70;;
16401;SDS011;8310;44.626;11.176;2023-04-03T14:56:10;8.82;;;3.28;;
16401;SDS011;8310;44.626;11.176;2023-04-03T14:58:39;6.97;;;2.83;;
16401;SDS011;8310;44.626;11.176;2023-04-03T15:01:08;9.90;;;3.17;;
16401;SDS011;8310;44.626;11.176;2023-04-03T15:03:38;4.72;;;2.95;;
16401;SDS011;8310;44.626;11.176;2023-04-03T15:06:06;2.63;;;1.70;;
16401;SDS011;8310;44.626;11.176;2023-04-03T15:08:35;12.82;;;3.88;;
16401;SDS011;8310;44.626;11.176;2023-04-03T15:11:02;4.53;;;2.33;;
16401;SDS011;8310;44.626;11.176;2023-04-03T15:13:30;2.97;;;1.45;;
16401;SDS011;8310;44.626;11.176;2023-04-03T15:15:57;2.55;;;1.73;;
16401;SDS011;8310;44.626;11.176;2023-04-03T15:18:25;7.80;;;1.90;;
16401;SDS011;8310;44.626;11.176;2023-04-03T15:20:56;3.53;;;1.85;;
16401;SDS011;8310;44.626;11.176;2023-04-03T15:23:24;4.18;;;1.85;;
16401;SDS011;8310;44.626;11.176;2023-04-03T15:25:51;24.85;;;5.22;;
16401;SDS011;8310;44.626;11.176;2023-04-03T15:28:21;3.80;;;2.80;;
16401;SDS011;8310;44.626;11.176;2023-04-03T15:30:52;2.05;;;1.95;;
16401;SDS011;8310;44.626;11.176;2023-04-03T15:33:19;2.95;;;2.05;;
16401;SDS011;8310;44.626;11.176;2023-04-03T15:35:48;1.92;;;1.65;;
16401;SDS011;8310;44.626;11.176;2023-04-03T15:38:18;3.25;;;1.63;;